sensor_id;sensor_type;location;lat;lon;timestamp;temperature;humidity
15609;DHT22;64278;45.642;13.756;2023-02-01T00:00:20;21.20;51.80
15609;DHT22;64278;45.642;13.756;2023-02-01T00:02:45;21.20;51.90
15609;DHT22;64278;45.642;13.756;2023-02-01T00:05:11;21.20;51.90
15609;DHT22;64278;45.642;13.756;2023-02-01T00:07:37;21.10;51.80
15609;DHT22;64278;45.642;13.756;2023-02-01T00:10:04;21.10;51.60
15609;DHT22;64278;45.642;13.756;2023-02-01T00:12:31;21.10;51.60
15609;DHT22;64278;45.642;13.756;2023-02-01T00:14:57;21.10;51.70
15609;DHT22;64278;45.642;13.756;2023-02-01T00:17:22;21.10;51.90
15609;DHT22;64278;45.642;13.756;2023-02-01T00:19:48;21.10;51.90
15609;DHT22;64278;45.642;13.756;2023-02-01T00:22:14;21.20;52.00
15609;DHT22;64278;45.642;13.756;2023-02-01T00:24:40;21.10;51.90
15609;DHT22;64278;45.642;13.756;2023-02-01T00:27:05;21.20;52.00
15609;DHT22;64278;45.642;13.756;2023-02-01T00:29:31;21.20;52.00
15609;DHT22;64278;45.642;13.756;2023-02-01T00:31:57;21.20;52.10
15609;DHT22;64278;45.642;13.756;2023-02-01T00:34:23;21.20;52.20
15609;DHT22;64278;45.642;13.756;2023-02-01T00:36:48;21.20;52.90
15609;DHT22;64278;45.642;13.756;2023-02-01T00:39:14;21.20;52.30
15609;DHT22;64278;45.642;13.756;2023-02-01T00:41:40;21.20;52.30
15609;DHT22;64278;45.642;13.756;2023-02-01T00:44:06;21.20;52.20
15609;DHT22;64278;45.642;13.756;2023-02-01T00:46:32;21.10;52.20
15609;DHT22;64278;45.642;13.756;2023-02-01T00:48:57;21.20;52.30
15609;DHT22;64278;45.642;13.756;2023-02-01T00:51:26;21.20;52.30
15609;DHT22;64278;45.642;13.756;2023-02-01T00:53:52;21.20;52.30
15609;DHT22;64278;45.642;13.756;2023-02-01T00:56:18;21.10;52.30
15609;DHT22;64278;45.642;13.756;2023-02-01T00:58:43;21.10;52.30
15609;DHT22;64278;45.642;13.756;2023-02-01T01:01:12;21.10;52.20
15609;DHT22;64278;45.642;13.756;2023-02-01T01:03:43;21.10;52.20
15609;DHT22;64278;45.642;13.756;2023-02-01T01:06:12;21.10;52.10
15609;DHT22;64278;45.642;13.756;2023-02-01T01:08:39;21.10;52.00
15609;DHT22;64278;45.642;13.756;2023-02-01T01:11:26;21.10;52.00
15609;DHT22;64278;45.642;13.756;2023-02-01T01:13:54;21.10;52.00
15609;DHT22;64278;45.642;13.756;2023-02-01T01:16:21;21.00;52.00
15609;DHT22;64278;45.642;13.756;2023-02-01T01:18:47;21.00;52.00
15609;DHT22;64278;45.642;13.756;2023-02-01T01:21:14;21.00;52.00
15609;DHT22;64278;45.642;13.756;2023-02-01T01:23:40;21.00;52.00
15609;DHT22;64278;45.642;13.756;2023-02-01T01:26:15;21.00;52.00
15609;DHT22;64278;45.642;13.756;2023-02-01T01:28:41;21.00;52.10
15609;DHT22;64278;45.642;13.756;2023-02-01T01:31:11;21.00;52.00
15609;DHT22;64278;45.642;13.756;2023-02-01T01:33:36;20.90;52.00
15609;DHT22;64278;45.642;13.756;2023-02-01T01:36:05;20.90;52.00
15609;DHT22;64278;45.642;13.756;2023-02-01T01:38:31;20.90;52.00
15609;DHT22;64278;45.642;13.756;2023-02-01T01:40:56;20.90;52.00
15609;DHT22;64278;45.642;13.756;2023-02-01T01:43:22;20.90;52.00
15609;DHT22;64278;45.642;13.756;2023-02-01T01:45:48;20.90;52.00
15609;DHT22;64278;45.642;13.756;2023-02-01T01:48:28;20.90;52.10
15609;DHT22;64278;45.642;13.756;2023-02-01T01:51:01;20.90;52.10
15609;DHT22;64278;45.642;13.756;2023-02-01T01:53:32;20.90;52.10
15609;DHT22;64278;45.642;13.756;2023-02-01T01:55:59;20.80;52.10
15609;DHT22;64278;45.642;13.756;2023-02-01T01:58:27;20.80;52.20
15609;DHT22;64278;45.642;13.756;2023-02-01T02:00:54;20.80;52.20
15609;DHT22;64278;45.642;13.756;2023-02-01T02:03:32;20.80;52.20
15609;DHT22;64278;45.642;13.756;2023-02-01T02:06:01;20.80;52.20
15609;DHT22;64278;45.642;13.756;2023-02-01T02:08:28;20.80;52.20
15609;DHT22;64278;45.642;13.756;2023-02-01T02:10:54;20.80;52.20
15609;DHT22;64278;45.642;13.756;2023-02-01T02:34:28;20.70;52.20
15609;DHT22;64278;45.642;13.756;2023-02-01T02:42:39;20.70;52.20
15609;DHT22;64278;45.642;13.756;2023-02-01T02:45:49;20.70;52.30
15609;DHT22;64278;45.642;13.756;2023-02-01T02:52:01;20.70;52.20
15609;DHT22;64278;45.642;13.756;2023-02-01T02:54:23;20.70;52.20
15609;DHT22;64278;45.642;13.756;2023-02-01T02:57:10;20.70;52.20
15609;DHT22;64278;45.642;13.756;2023-02-01T02:59:58;20.60;52.20
15609;DHT22;64278;45.642;13.756;2023-02-01T03:02:45;20.60;52.20
15609;DHT22;64278;45.642;13.756;2023-02-01T03:05:39;20.60;52.20
15609;DHT22;64278;45.642;13.756;2023-02-01T03:08:15;20.60;52.20
15609;DHT22;64278;45.642;13.756;2023-02-01T03:10:47;20.60;52.30
15609;DHT22;64278;45.642;13.756;2023-02-01T03:13:28;20.60;52.20
15609;DHT22;64278;45.642;13.756;2023-02-01T03:18:45;20.60;52.50
15609;DHT22;64278;45.642;13.756;2023-02-01T03:21:17;20.60;52.20
15609;DHT22;64278;45.642;13.756;2023-02-01T03:23:44;20.60;52.20
15609;DHT22;64278;45.642;13.756;2023-02-01T03:26:13;20.60;52.20
15609;DHT22;64278;45.642;13.756;2023-02-01T03:28:49;20.60;52.20
15609;DHT22;64278;45.642;13.756;2023-02-01T03:31:17;20.60;52.20
15609;DHT22;64278;45.642;13.756;2023-02-01T03:33:43;20.60;52.10
15609;DHT22;64278;45.642;13.756;2023-02-01T03:36:21;20.50;52.10
15609;DHT22;64278;45.642;13.756;2023-02-01T03:39:08;20.50;52.20
15609;DHT22;64278;45.642;13.756;2023-02-01T03:44:26;20.50;52.20
15609;DHT22;64278;45.642;13.756;2023-02-01T03:46:59;20.50;52.20
15609;DHT22;64278;45.642;13.756;2023-02-01T03:49:31;20.50;52.20
15609;DHT22;64278;45.642;13.756;2023-02-01T03:51:59;20.50;52.20
15609;DHT22;64278;45.642;13.756;2023-02-01T03:54:27;20.50;52.20
15609;DHT22;64278;45.642;13.756;2023-02-01T03:56:55;20.50;52.20
15609;DHT22;64278;45.642;13.756;2023-02-01T03:59:21;20.50;52.20
15609;DHT22;64278;45.642;13.756;2023-02-01T04:01:47;20.50;52.30
15609;DHT22;64278;45.642;13.756;2023-02-01T04:04:13;20.50;52.30
15609;DHT22;64278;45.642;13.756;2023-02-01T04:06:49;20.50;52.40
15609;DHT22;64278;45.642;13.756;2023-02-01T04:09:15;20.50;52.40
15609;DHT22;64278;45.642;13.756;2023-02-01T04:11:41;20.50;52.40
15609;DHT22;64278;45.642;13.756;2023-02-01T04:14:07;20.40;52.40
15609;DHT22;64278;45.642;13.756;2023-02-01T04:16:33;20.40;52.40
15609;DHT22;64278;45.642;13.756;2023-02-01T04:18:58;20.50;52.50
15609;DHT22;64278;45.642;13.756;2023-02-01T04:21:27;20.40;52.40
15609;DHT22;64278;45.642;13.756;2023-02-01T04:23:53;20.40;52.40
15609;DHT22;64278;45.642;13.756;2023-02-01T04:26:20;20.40;52.40
15609;DHT22;64278;45.642;13.756;2023-02-01T04:28:46;20.40;52.40
15609;DHT22;64278;45.642;13.756;2023-02-01T04:31:15;20.40;52.40
15609;DHT22;64278;45.642;13.756;2023-02-01T04:33:41;20.40;52.40
15609;DHT22;64278;45.642;13.756;2023-02-01T04:36:06;20.40;52.40
15609;DHT22;64278;45.642;13.756;2023-02-01T04:38:32;20.40;52.40
15609;DHT22;64278;45.642;13.756;2023-02-01T04:40:58;20.40;52.40
15609;DHT22;64278;45.642;13.756;2023-02-01T04:43:24;20.40;52.30
15609;DHT22;64278;45.642;13.756;2023-02-01T04:45:50;20.40;52.30
15609;DHT22;64278;45.642;13.756;2023-02-01T04:48:17;20.40;52.30
15609;DHT22;64278;45.642;13.756;2023-02-01T04:50:44;20.40;52.40
15609;DHT22;64278;45.642;13.756;2023-02-01T04:53:17;20.40;52.40
15609;DHT22;64278;45.642;13.756;2023-02-01T04:55:43;20.40;52.40
15609;DHT22;64278;45.642;13.756;2023-02-01T04:58:09;20.40;52.40
15609;DHT22;64278;45.642;13.756;2023-02-01T05:00:36;20.40;52.40
15609;DHT22;64278;45.642;13.756;2023-02-01T05:03:02;20.30;52.30
15609;DHT22;64278;45.642;13.756;2023-02-01T05:05:28;20.40;52.40
15609;DHT22;64278;45.642;13.756;2023-02-01T05:07:54;20.30;52.30
15609;DHT22;64278;45.642;13.756;2023-02-01T05:10:20;20.30;52.30
15609;DHT22;64278;45.642;13.756;2023-02-01T05:12:45;20.30;52.30
15609;DHT22;64278;45.642;13.756;2023-02-01T05:15:31;20.30;52.30
15609;DHT22;64278;45.642;13.756;2023-02-01T05:17:57;20.30;52.30
15609;DHT22;64278;45.642;13.756;2023-02-01T05:20:23;20.30;52.30
15609;DHT22;64278;45.642;13.756;2023-02-01T05:22:49;20.40;52.30
15609;DHT22;64278;45.642;13.756;2023-02-01T05:25:15;20.30;52.30
15609;DHT22;64278;45.642;13.756;2023-02-01T05:27:40;20.30;52.30
15609;DHT22;64278;45.642;13.756;2023-02-01T05:30:07;20.30;52.30
15609;DHT22;64278;45.642;13.756;2023-02-01T05:32:33;20.40;52.30
15609;DHT22;64278;45.642;13.756;2023-02-01T05:34:58;20.30;52.30
15609;DHT22;64278;45.642;13.756;2023-02-01T05:37:24;20.30;52.30
15609;DHT22;64278;45.642;13.756;2023-02-01T05:39:50;20.30;52.30
15609;DHT22;64278;45.642;13.756;2023-02-01T05:42:16;20.30;52.30
15609;DHT22;64278;45.642;13.756;2023-02-01T05:44:41;20.30;52.30
15609;DHT22;64278;45.642;13.756;2023-02-01T05:47:07;20.30;52.30
15609;DHT22;64278;45.642;13.756;2023-02-01T05:49:33;20.30;52.30
15609;DHT22;64278;45.642;13.756;2023-02-01T05:51:59;20.30;52.30
15609;DHT22;64278;45.642;13.756;2023-02-01T05:54:24;20.30;52.30
15609;DHT22;64278;45.642;13.756;2023-02-01T05:56:50;20.30;52.30
15609;DHT22;64278;45.642;13.756;2023-02-01T05:59:16;20.30;52.30
15609;DHT22;64278;45.642;13.756;2023-02-01T06:01:41;20.30;52.30
15609;DHT22;64278;45.642;13.756;2023-02-01T06:04:07;20.30;52.30
15609;DHT22;64278;45.642;13.756;2023-02-01T06:06:33;20.30;52.30
15609;DHT22;64278;45.642;13.756;2023-02-01T06:08:59;20.30;52.40
15609;DHT22;64278;45.642;13.756;2023-02-01T06:11:25;20.30;52.40
15609;DHT22;64278;45.642;13.756;2023-02-01T06:13:51;20.30;52.40
15609;DHT22;64278;45.642;13.756;2023-02-01T06:16:17;20.30;52.50
15609;DHT22;64278;45.642;13.756;2023-02-01T06:18:42;20.30;52.50
15609;DHT22;64278;45.642;13.756;2023-02-01T06:21:08;20.20;52.50
15609;DHT22;64278;45.642;13.756;2023-02-01T06:23:34;20.30;52.60
15609;DHT22;64278;45.642;13.756;2023-02-01T06:26:04;20.20;52.60
15609;DHT22;64278;45.642;13.756;2023-02-01T06:28:31;20.20;52.60
15609;DHT22;64278;45.642;13.756;2023-02-01T06:30:58;20.20;52.60
15609;DHT22;64278;45.642;13.756;2023-02-01T06:33:27;20.20;52.70
15609;DHT22;64278;45.642;13.756;2023-02-01T06:35:57;20.20;52.70
15609;DHT22;64278;45.642;13.756;2023-02-01T06:38:24;20.20;52.70
15609;DHT22;64278;45.642;13.756;2023-02-01T06:40:53;20.20;52.80
15609;DHT22;64278;45.642;13.756;2023-02-01T06:43:20;20.20;52.80
15609;DHT22;64278;45.642;13.756;2023-02-01T06:45:46;20.20;52.90
15609;DHT22;64278;45.642;13.756;2023-02-01T06:48:11;20.20;52.90
15609;DHT22;64278;45.642;13.756;2023-02-01T06:50:37;20.20;53.00
15609;DHT22;64278;45.642;13.756;2023-02-01T06:53:03;20.20;53.00
15609;DHT22;64278;45.642;13.756;2023-02-01T06:55:28;20.20;53.00
15609;DHT22;64278;45.642;13.756;2023-02-01T06:57:54;20.20;53.10
15609;DHT22;64278;45.642;13.756;2023-02-01T07:00:24;20.20;53.10
15609;DHT22;64278;45.642;13.756;2023-02-01T07:02:50;20.20;53.20
15609;DHT22;64278;45.642;13.756;2023-02-01T07:05:16;20.20;53.20
15609;DHT22;64278;45.642;13.756;2023-02-01T07:07:42;20.20;53.20
15609;DHT22;64278;45.642;13.756;2023-02-01T07:10:09;20.10;53.20
15609;DHT22;64278;45.642;13.756;2023-02-01T07:12:35;20.10;53.20
15609;DHT22;64278;45.642;13.756;2023-02-01T07:15:01;20.20;53.30
15609;DHT22;64278;45.642;13.756;2023-02-01T07:17:28;20.20;53.40
15609;DHT22;64278;45.642;13.756;2023-02-01T07:19:57;20.20;53.40
15609;DHT22;64278;45.642;13.756;2023-02-01T07:22:27;20.10;53.40
15609;DHT22;64278;45.642;13.756;2023-02-01T07:24:52;20.10;53.40
15609;DHT22;64278;45.642;13.756;2023-02-01T07:27:18;20.10;53.50
15609;DHT22;64278;45.642;13.756;2023-02-01T07:29:45;20.10;53.50
15609;DHT22;64278;45.642;13.756;2023-02-01T07:32:10;20.10;53.50
15609;DHT22;64278;45.642;13.756;2023-02-01T07:34:36;20.10;53.50
15609;DHT22;64278;45.642;13.756;2023-02-01T07:37:02;20.10;53.60
15609;DHT22;64278;45.642;13.756;2023-02-01T07:39:28;20.10;52.90
15609;DHT22;64278;45.642;13.756;2023-02-01T07:41:54;20.00;50.50
15609;DHT22;64278;45.642;13.756;2023-02-01T07:44:19;20.00;50.00
15609;DHT22;64278;45.642;13.756;2023-02-01T07:46:48;20.00;50.80
15609;DHT22;64278;45.642;13.756;2023-02-01T07:49:14;20.00;51.30
15609;DHT22;64278;45.642;13.756;2023-02-01T07:51:40;20.10;51.60
15609;DHT22;64278;45.642;13.756;2023-02-01T07:54:05;20.10;51.50
15609;DHT22;64278;45.642;13.756;2023-02-01T07:56:31;20.20;51.40
15609;DHT22;64278;45.642;13.756;2023-02-01T07:58:56;20.30;51.20
15609;DHT22;64278;45.642;13.756;2023-02-01T08:01:26;20.30;51.00
15609;DHT22;64278;45.642;13.756;2023-02-01T08:03:54;20.40;50.90
15609;DHT22;64278;45.642;13.756;2023-02-01T08:06:21;20.40;50.70
15609;DHT22;64278;45.642;13.756;2023-02-01T08:08:48;20.50;50.70
15609;DHT22;64278;45.642;13.756;2023-02-01T08:11:15;20.50;50.70
15609;DHT22;64278;45.642;13.756;2023-02-01T08:13:41;20.60;50.70
15609;DHT22;64278;45.642;13.756;2023-02-01T08:16:08;20.60;51.30
15609;DHT22;64278;45.642;13.756;2023-02-01T08:18:35;20.60;50.60
15609;DHT22;64278;45.642;13.756;2023-02-01T08:21:15;20.70;50.70
15609;DHT22;64278;45.642;13.756;2023-02-01T08:23:41;20.70;50.70
15609;DHT22;64278;45.642;13.756;2023-02-01T08:28:35;20.80;50.80
15609;DHT22;64278;45.642;13.756;2023-02-01T08:31:07;20.80;50.90
15609;DHT22;64278;45.642;13.756;2023-02-01T08:33:33;20.80;50.80
15609;DHT22;64278;45.642;13.756;2023-02-01T08:36:01;20.80;50.90
15609;DHT22;64278;45.642;13.756;2023-02-01T08:38:27;20.80;51.20
15609;DHT22;64278;45.642;13.756;2023-02-01T08:40:53;20.90;52.00
15609;DHT22;64278;45.642;13.756;2023-02-01T08:43:18;20.90;52.80
15609;DHT22;64278;45.642;13.756;2023-02-01T08:45:44;20.90;53.00
15609;DHT22;64278;45.642;13.756;2023-02-01T08:48:10;21.00;53.30
15609;DHT22;64278;45.642;13.756;2023-02-01T08:50:36;21.00;53.40
15609;DHT22;64278;45.642;13.756;2023-02-01T08:53:01;21.00;53.60
15609;DHT22;64278;45.642;13.756;2023-02-01T08:55:27;21.00;53.80
15609;DHT22;64278;45.642;13.756;2023-02-01T08:57:53;21.10;54.00
15609;DHT22;64278;45.642;13.756;2023-02-01T09:00:18;21.10;54.00
15609;DHT22;64278;45.642;13.756;2023-02-01T09:02:45;21.00;54.10
15609;DHT22;64278;45.642;13.756;2023-02-01T09:05:11;21.10;54.10
15609;DHT22;64278;45.642;13.756;2023-02-01T09:07:37;21.10;54.20
15609;DHT22;64278;45.642;13.756;2023-02-01T09:10:03;21.10;54.20
15609;DHT22;64278;45.642;13.756;2023-02-01T09:12:30;21.10;54.20
15609;DHT22;64278;45.642;13.756;2023-02-01T09:14:57;21.10;54.30
15609;DHT22;64278;45.642;13.756;2023-02-01T09:17:25;21.00;54.40
15609;DHT22;64278;45.642;13.756;2023-02-01T09:19:51;21.00;54.50
15609;DHT22;64278;45.642;13.756;2023-02-01T09:22:17;21.00;54.60
15609;DHT22;64278;45.642;13.756;2023-02-01T09:24:43;21.00;54.50
15609;DHT22;64278;45.642;13.756;2023-02-01T09:27:09;21.00;54.50
15609;DHT22;64278;45.642;13.756;2023-02-01T09:29:35;21.00;54.50
15609;DHT22;64278;45.642;13.756;2023-02-01T09:32:00;20.90;54.40
15609;DHT22;64278;45.642;13.756;2023-02-01T09:34:26;20.90;54.30
15609;DHT22;64278;45.642;13.756;2023-02-01T09:36:51;20.90;54.10
15609;DHT22;64278;45.642;13.756;2023-02-01T09:39:17;20.90;54.10
15609;DHT22;64278;45.642;13.756;2023-02-01T09:47:17;21.00;53.90
15609;DHT22;64278;45.642;13.756;2023-02-01T09:52:55;21.00;53.70
15609;DHT22;64278;45.642;13.756;2023-02-01T09:55:44;20.90;53.50
15609;DHT22;64278;45.642;13.756;2023-02-01T10:01:17;21.00;53.30
15609;DHT22;64278;45.642;13.756;2023-02-01T10:03:44;21.00;53.10
15609;DHT22;64278;45.642;13.756;2023-02-01T10:22:44;21.00;54.10
15609;DHT22;64278;45.642;13.756;2023-02-01T10:25:59;21.00;54.30
15609;DHT22;64278;45.642;13.756;2023-02-01T10:28:06;21.00;54.60
15609;DHT22;64278;45.642;13.756;2023-02-01T10:30:44;21.00;54.70
15609;DHT22;64278;45.642;13.756;2023-02-01T10:33:32;21.00;54.90
15609;DHT22;64278;45.642;13.756;2023-02-01T10:38:32;21.00;55.10
15609;DHT22;64278;45.642;13.756;2023-02-01T10:41:03;21.10;55.50
15609;DHT22;64278;45.642;13.756;2023-02-01T10:43:32;21.10;55.80
15609;DHT22;64278;45.642;13.756;2023-02-01T10:45:59;21.00;56.10
15609;DHT22;64278;45.642;13.756;2023-02-01T10:48:25;21.10;57.00
15609;DHT22;64278;45.642;13.756;2023-02-01T10:51:05;21.10;58.10
15609;DHT22;64278;45.642;13.756;2023-02-01T10:53:51;21.10;58.70
15609;DHT22;64278;45.642;13.756;2023-02-01T10:56:24;21.10;59.50
15609;DHT22;64278;45.642;13.756;2023-02-01T10:58:50;21.10;59.80
15609;DHT22;64278;45.642;13.756;2023-02-01T11:01:22;21.10;60.60
15609;DHT22;64278;45.642;13.756;2023-02-01T11:03:52;21.10;60.80
15609;DHT22;64278;45.642;13.756;2023-02-01T11:06:34;21.10;60.70
15609;DHT22;64278;45.642;13.756;2023-02-01T11:09:21;21.10;60.70
15609;DHT22;64278;45.642;13.756;2023-02-01T11:11:52;21.10;60.70
15609;DHT22;64278;45.642;13.756;2023-02-01T11:16:53;21.00;60.30
15609;DHT22;64278;45.642;13.756;2023-02-01T11:19:19;21.00;60.00
15609;DHT22;64278;45.642;13.756;2023-02-01T11:21:53;21.00;60.00
15609;DHT22;64278;45.642;13.756;2023-02-01T11:24:32;21.00;59.60
15609;DHT22;64278;45.642;13.756;2023-02-01T11:27:01;20.90;59.40
15609;DHT22;64278;45.642;13.756;2023-02-01T11:29:40;21.00;59.30
15609;DHT22;64278;45.642;13.756;2023-02-01T11:32:08;20.90;59.20
15609;DHT22;64278;45.642;13.756;2023-02-01T11:37:04;20.90;59.10
15609;DHT22;64278;45.642;13.756;2023-02-01T11:39:34;20.90;59.10
15609;DHT22;64278;45.642;13.756;2023-02-01T11:42:16;20.90;59.20
15609;DHT22;64278;45.642;13.756;2023-02-01T11:44:44;20.90;59.10
15609;DHT22;64278;45.642;13.756;2023-02-01T11:47:36;20.90;59.10
15609;DHT22;64278;45.642;13.756;2023-02-01T11:50:14;20.90;59.20
15609;DHT22;64278;45.642;13.756;2023-02-01T12:06:05;20.80;58.50
15609;DHT22;64278;45.642;13.756;2023-02-01T12:14:11;20.80;58.10
15609;DHT22;64278;45.642;13.756;2023-02-01T12:20:01;20.90;57.90
15609;DHT22;64278;45.642;13.756;2023-02-01T12:25:24;21.00;57.80
15609;DHT22;64278;45.642;13.756;2023-02-01T12:33:50;21.20;57.90
15609;DHT22;64278;45.642;13.756;2023-02-01T12:39:24;21.30;58.20
15609;DHT22;64278;45.642;13.756;2023-02-01T12:44:44;21.30;58.70
15609;DHT22;64278;45.642;13.756;2023-02-01T12:47:49;21.40;59.00
15609;DHT22;64278;45.642;13.756;2023-02-01T12:50:28;21.40;59.20
15609;DHT22;64278;45.642;13.756;2023-02-01T12:53:25;21.40;59.50
15609;DHT22;64278;45.642;13.756;2023-02-01T12:55:58;21.40;59.50
15609;DHT22;64278;45.642;13.756;2023-02-01T12:59:05;21.40;59.50
15609;DHT22;64278;45.642;13.756;2023-02-01T13:01:41;21.50;59.70
15609;DHT22;64278;45.642;13.756;2023-02-01T13:04:16;21.50;59.60
15609;DHT22;64278;45.642;13.756;2023-02-01T13:06:48;21.50;59.50
15609;DHT22;64278;45.642;13.756;2023-02-01T13:09:53;21.50;59.40
15609;DHT22;64278;45.642;13.756;2023-02-01T13:12:36;21.50;59.40
15609;DHT22;64278;45.642;13.756;2023-02-01T13:15:13;21.50;59.30
15609;DHT22;64278;45.642;13.756;2023-02-01T13:17:42;21.50;59.10
15609;DHT22;64278;45.642;13.756;2023-02-01T13:20:34;21.50;59.00
15609;DHT22;64278;45.642;13.756;2023-02-01T13:23:23;21.50;58.80
15609;DHT22;64278;45.642;13.756;2023-02-01T13:25:52;21.60;59.30
15609;DHT22;64278;45.642;13.756;2023-02-01T13:28:26;21.60;58.60
15609;DHT22;64278;45.642;13.756;2023-02-01T13:33:49;21.60;58.40
15609;DHT22;64278;45.642;13.756;2023-02-01T13:36:22;21.60;58.30
15609;DHT22;64278;45.642;13.756;2023-02-01T13:41:59;21.60;58.20
15609;DHT22;64278;45.642;13.756;2023-02-01T13:44:30;21.70;58.10
15609;DHT22;64278;45.642;13.756;2023-02-01T13:47:03;21.60;58.00
15609;DHT22;64278;45.642;13.756;2023-02-01T13:49:33;21.60;57.90
15609;DHT22;64278;45.642;13.756;2023-02-01T13:52:02;21.60;57.90
15609;DHT22;64278;45.642;13.756;2023-02-01T13:54:38;21.70;57.80
15609;DHT22;64278;45.642;13.756;2023-02-01T13:57:12;21.70;57.70
15609;DHT22;64278;45.642;13.756;2023-02-01T14:05:10;21.70;57.70
15609;DHT22;64278;45.642;13.756;2023-02-01T14:07:40;21.70;57.60
15609;DHT22;64278;45.642;13.756;2023-02-01T14:23:46;21.80;57.40
15609;DHT22;64278;45.642;13.756;2023-02-01T14:26:17;21.80;57.30
15609;DHT22;64278;45.642;13.756;2023-02-01T14:34:23;21.80;57.30
15609;DHT22;64278;45.642;13.756;2023-02-01T14:37:30;21.80;57.20
15609;DHT22;64278;45.642;13.756;2023-02-01T14:44:51;21.80;57.10
15609;DHT22;64278;45.642;13.756;2023-02-01T14:55:59;21.80;57.00
15609;DHT22;64278;45.642;13.756;2023-02-01T14:58:40;21.80;57.10
15609;DHT22;64278;45.642;13.756;2023-02-01T15:01:15;21.90;57.00
15609;DHT22;64278;45.642;13.756;2023-02-01T15:09:31;21.90;57.00
15609;DHT22;64278;45.642;13.756;2023-02-01T15:14:38;22.00;57.20
15609;DHT22;64278;45.642;13.756;2023-02-01T15:17:28;21.90;57.10
15609;DHT22;64278;45.642;13.756;2023-02-01T15:20:11;21.90;57.10
15609;DHT22;64278;45.642;13.756;2023-02-01T15:22:37;22.00;57.10
15609;DHT22;64278;45.642;13.756;2023-02-01T15:25:03;22.00;57.10
15609;DHT22;64278;45.642;13.756;2023-02-01T15:27:30;22.00;57.00
15609;DHT22;64278;45.642;13.756;2023-02-01T15:30:17;22.00;57.10
15609;DHT22;64278;45.642;13.756;2023-02-01T15:32:43;22.00;57.10
15609;DHT22;64278;45.642;13.756;2023-02-01T15:35:34;22.00;57.10
15609;DHT22;64278;45.642;13.756;2023-02-01T15:38:20;22.00;57.10
15609;DHT22;64278;45.642;13.756;2023-02-01T15:41:05;22.00;57.20
15609;DHT22;64278;45.642;13.756;2023-02-01T15:43:35;22.00;57.20
15609;DHT22;64278;45.642;13.756;2023-02-01T15:46:03;22.00;57.20
15609;DHT22;64278;45.642;13.756;2023-02-01T15:48:52;22.00;57.30
15609;DHT22;64278;45.642;13.756;2023-02-01T15:51:22;21.90;57.20
15609;DHT22;64278;45.642;13.756;2023-02-01T15:54:00;21.90;57.20
15609;DHT22;64278;45.642;13.756;2023-02-01T15:56:29;22.00;57.10
15609;DHT22;64278;45.642;13.756;2023-02-01T15:59:00;21.90;57.70
15609;DHT22;64278;45.642;13.756;2023-02-01T16:01:27;21.90;57.00
15609;DHT22;64278;45.642;13.756;2023-02-01T16:04:19;21.90;57.00
15609;DHT22;64278;45.642;13.756;2023-02-01T16:06:48;21.90;57.00
15609;DHT22;64278;45.642;13.756;2023-02-01T16:09:16;21.90;56.90
15609;DHT22;64278;45.642;13.756;2023-02-01T16:12:01;21.90;56.90
15609;DHT22;64278;45.642;13.756;2023-02-01T16:14:27;21.90;56.90
15609;DHT22;64278;45.642;13.756;2023-02-01T16:16:55;21.90;56.90
15609;DHT22;64278;45.642;13.756;2023-02-01T16:19:21;21.80;56.80
15609;DHT22;64278;45.642;13.756;2023-02-01T16:21:50;21.80;56.80
15609;DHT22;64278;45.642;13.756;2023-02-01T16:24:16;21.80;56.80
15609;DHT22;64278;45.642;13.756;2023-02-01T16:26:41;21.80;56.80
15609;DHT22;64278;45.642;13.756;2023-02-01T16:29:08;21.80;56.80
15609;DHT22;64278;45.642;13.756;2023-02-01T16:31:36;21.80;56.80
15609;DHT22;64278;45.642;13.756;2023-02-01T16:34:04;21.80;56.70
15609;DHT22;64278;45.642;13.756;2023-02-01T16:36:31;21.80;56.70
15609;DHT22;64278;45.642;13.756;2023-02-01T16:38:57;21.80;56.70
15609;DHT22;64278;45.642;13.756;2023-02-01T16:41:23;21.80;56.70
15609;DHT22;64278;45.642;13.756;2023-02-01T16:43:51;21.80;56.70
15609;DHT22;64278;45.642;13.756;2023-02-01T16:46:20;21.80;56.60
15609;DHT22;64278;45.642;13.756;2023-02-01T16:48:56;21.70;56.50
15609;DHT22;64278;45.642;13.756;2023-02-01T16:51:28;21.70;56.50
15609;DHT22;64278;45.642;13.756;2023-02-01T16:53:54;21.70;56.50
15609;DHT22;64278;45.642;13.756;2023-02-01T16:56:28;21.80;56.50
15609;DHT22;64278;45.642;13.756;2023-02-01T16:58:54;21.70;56.50
15609;DHT22;64278;45.642;13.756;2023-02-01T17:01:20;21.70;56.50
15609;DHT22;64278;45.642;13.756;2023-02-01T17:03:46;21.70;56.40
15609;DHT22;64278;45.642;13.756;2023-02-01T17:06:15;21.70;56.40
15609;DHT22;64278;45.642;13.756;2023-02-01T17:08:44;21.60;56.50
15609;DHT22;64278;45.642;13.756;2023-02-01T17:11:11;21.70;56.50
15609;DHT22;64278;45.642;13.756;2023-02-01T17:13:38;21.70;56.50
15609;DHT22;64278;45.642;13.756;2023-02-01T17:16:15;21.70;56.50
15609;DHT22;64278;45.642;13.756;2023-02-01T17:18:50;21.70;56.50
15609;DHT22;64278;45.642;13.756;2023-02-01T17:21:16;21.70;56.50
15609;DHT22;64278;45.642;13.756;2023-02-01T17:23:42;21.70;56.50
15609;DHT22;64278;45.642;13.756;2023-02-01T17:26:11;21.80;56.50
15609;DHT22;64278;45.642;13.756;2023-02-01T17:28:37;21.70;56.50
15609;DHT22;64278;45.642;13.756;2023-02-01T17:31:03;21.80;56.50
15609;DHT22;64278;45.642;13.756;2023-02-01T17:33:34;21.70;56.30
15609;DHT22;64278;45.642;13.756;2023-02-01T17:36:00;21.70;56.20
15609;DHT22;64278;45.642;13.756;2023-02-01T17:38:26;21.70;56.20
15609;DHT22;64278;45.642;13.756;2023-02-01T17:40:52;21.70;56.20
15609;DHT22;64278;45.642;13.756;2023-02-01T17:43:21;21.70;56.20
15609;DHT22;64278;45.642;13.756;2023-02-01T17:48:30;21.70;56.30
15609;DHT22;64278;45.642;13.756;2023-02-01T17:50:56;21.70;56.30
15609;DHT22;64278;45.642;13.756;2023-02-01T17:53:26;21.70;56.20
15609;DHT22;64278;45.642;13.756;2023-02-01T17:55:52;21.70;56.10
15609;DHT22;64278;45.642;13.756;2023-02-01T17:58:18;21.60;56.00
15609;DHT22;64278;45.642;13.756;2023-02-01T18:00:45;21.60;56.00
15609;DHT22;64278;45.642;13.756;2023-02-01T18:03:27;21.70;56.00
15609;DHT22;64278;45.642;13.756;2023-02-01T18:05:55;21.70;56.30
15609;DHT22;64278;45.642;13.756;2023-02-01T18:08:22;21.60;56.70
15609;DHT22;64278;45.642;13.756;2023-02-01T18:10:50;21.70;57.40
15609;DHT22;64278;45.642;13.756;2023-02-01T18:13:16;21.70;58.00
15609;DHT22;64278;45.642;13.756;2023-02-01T18:15:42;21.70;58.10
15609;DHT22;64278;45.642;13.756;2023-02-01T18:18:08;21.70;58.10